sensor_id;sensor_type;location;lat;lon;timestamp;P1;durP1;ratioP1;P2;durP2;ratioP2
69161;SDS011;56269;51.738;21.652;2023-05-08T00:00:56;9.20;;;3.30;;
69161;SDS011;56269;51.738;21.652;2023-05-08T00:03:23;9.02;;;3.20;;
69161;SDS011;56269;51.738;21.652;2023-05-08T00:05:50;9.48;;;3.75;;
69161;SDS011;56269;51.738;21.652;2023-05-08T00:08:17;8.43;;;3.42;;
69161;SDS011;56269;51.738;21.652;2023-05-08T00:10:44;8.95;;;3.72;;
69161;SDS011;56269;51.738;21.652;2023-05-08T00:13:11;9.23;;;3.50;;
69161;SDS011;56269;51.738;21.652;2023-05-08T00:15:37;11.82;;;3.78;;
69161;SDS011;56269;51.738;21.652;2023-05-08T00:18:03;11.20;;;3.55;;
69161;SDS011;56269;51.738;21.652;2023-05-08T00:20:30;10.27;;;3.60;;
69161;SDS011;56269;51.738;21.652;2023-05-08T00:22:56;8.60;;;3.70;;
69161;SDS011;56269;51.738;21.652;2023-05-08T00:25:22;9.83;;;4.00;;
69161;SDS011;56269;51.738;21.652;2023-05-08T00:27:48;10.48;;;4.15;;
69161;SDS011;56269;51.738;21.652;2023-05-08T00:30:16;9.77;;;3.80;;
69161;SDS011;56269;51.738;21.652;2023-05-08T00:32:43;9.38;;;3.83;;
69161;SDS011;56269;51.738;21.652;2023-05-08T00:35:09;10.20;;;3.85;;
69161;SDS011;56269;51.738;21.652;2023-05-08T00:37:35;9.50;;;4.03;;
69161;SDS011;56269;51.738;21.652;2023-05-08T00:40:05;9.75;;;3.75;;
69161;SDS011;56269;51.738;21.652;2023-05-08T00:42:33;10.55;;;4.32;;
69161;SDS011;56269;51.738;21.652;2023-05-08T00:45:00;11.57;;;4.38;;
69161;SDS011;56269;51.738;21.652;2023-05-08T00:47:28;11.30;;;4.07;;
69161;SDS011;56269;51.738;21.652;2023-05-08T00:49:56;16.10;;;4.57;;
69161;SDS011;56269;51.738;21.652;2023-05-08T00:52:24;9.77;;;4.30;;
69161;SDS011;56269;51.738;21.652;2023-05-08T00:54:52;12.60;;;4.28;;
69161;SDS011;56269;51.738;21.652;2023-05-08T00:57:19;11.07;;;4.45;;
69161;SDS011;56269;51.738;21.652;2023-05-08T00:59:46;10.80;;;4.15;;
69161;SDS011;56269;51.738;21.652;2023-05-08T01:02:14;10.60;;;4.53;;
69161;SDS011;56269;51.738;21.652;2023-05-08T01:04:41;11.43;;;4.43;;
69161;SDS011;56269;51.738;21.652;2023-05-08T01:07:10;11.73;;;4.70;;
69161;SDS011;56269;51.738;21.652;2023-05-08T01:09:36;10.23;;;4.45;;
69161;SDS011;56269;51.738;21.652;2023-05-08T01:34:29;10.88;;;4.72;;
69161;SDS011;56269;51.738;21.652;2023-05-08T01:36:58;12.98;;;4.55;;
69161;SDS011;56269;51.738;21.652;2023-05-08T01:42:04;10.63;;;4.40;;
69161;SDS011;56269;51.738;21.652;2023-05-08T01:44:40;13.40;;;4.85;;
69161;SDS011;56269;51.738;21.652;2023-05-08T01:47:12;15.60;;;4.57;;
69161;SDS011;56269;51.738;21.652;2023-05-08T01:49:44;12.07;;;4.38;;
69161;SDS011;56269;51.738;21.652;2023-05-08T01:52:15;12.60;;;4.78;;
69161;SDS011;56269;51.738;21.652;2023-05-08T01:54:54;9.90;;;4.17;;
69161;SDS011;56269;51.738;21.652;2023-05-08T01:57:26;11.10;;;4.28;;
69161;SDS011;56269;51.738;21.652;2023-05-08T01:59:55;10.82;;;4.50;;
69161;SDS011;56269;51.738;21.652;2023-05-08T02:02:22;11.80;;;4.35;;
69161;SDS011;56269;51.738;21.652;2023-05-08T02:04:50;11.05;;;4.40;;
69161;SDS011;56269;51.738;21.652;2023-05-08T02:07:19;10.67;;;4.23;;
69161;SDS011;56269;51.738;21.652;2023-05-08T02:09:47;10.07;;;4.20;;
69161;SDS011;56269;51.738;21.652;2023-05-08T02:12:16;11.48;;;4.13;;
69161;SDS011;56269;51.738;21.652;2023-05-08T02:14:43;9.90;;;4.10;;
69161;SDS011;56269;51.738;21.652;2023-05-08T02:17:10;11.20;;;4.32;;
69161;SDS011;56269;51.738;21.652;2023-05-08T02:19:38;10.43;;;4.00;;
69161;SDS011;56269;51.738;21.652;2023-05-08T02:22:07;11.52;;;4.80;;
69161;SDS011;56269;51.738;21.652;2023-05-08T02:24:35;13.93;;;6.07;;
69161;SDS011;56269;51.738;21.652;2023-05-08T02:27:03;11.02;;;4.60;;
69161;SDS011;56269;51.738;21.652;2023-05-08T02:29:31;12.55;;;4.40;;
69161;SDS011;56269;51.738;21.652;2023-05-08T02:31:57;12.80;;;4.40;;
69161;SDS011;56269;51.738;21.652;2023-05-08T02:34:26;10.45;;;4.03;;
69161;SDS011;56269;51.738;21.652;2023-05-08T02:36:55;11.73;;;4.70;;
69161;SDS011;56269;51.738;21.652;2023-05-08T02:39:24;11.20;;;4.32;;
69161;SDS011;56269;51.738;21.652;2023-05-08T02:41:53;12.35;;;4.82;;
69161;SDS011;56269;51.738;21.652;2023-05-08T02:44:19;12.13;;;4.17;;
69161;SDS011;56269;51.738;21.652;2023-05-08T02:46:56;10.18;;;4.13;;
69161;SDS011;56269;51.738;21.652;2023-05-08T02:49:31;12.98;;;4.25;;
69161;SDS011;56269;51.738;21.652;2023-05-08T02:52:09;11.30;;;4.30;;
69161;SDS011;56269;51.738;21.652;2023-05-08T02:57:19;12.67;;;4.40;;
69161;SDS011;56269;51.738;21.652;2023-05-08T03:00:07;10.52;;;4.35;;
69161;SDS011;56269;51.738;21.652;2023-05-08T03:02:41;11.25;;;4.32;;
69161;SDS011;56269;51.738;21.652;2023-05-08T03:05:16;13.77;;;4.32;;
69161;SDS011;56269;51.738;21.652;2023-05-08T03:07:56;10.75;;;4.40;;
69161;SDS011;56269;51.738;21.652;2023-05-08T03:10:28;11.50;;;4.20;;
69161;SDS011;56269;51.738;21.652;2023-05-08T03:12:59;10.48;;;4.20;;
69161;SDS011;56269;51.738;21.652;2023-05-08T03:15:36;10.45;;;4.00;;
69161;SDS011;56269;51.738;21.652;2023-05-08T03:18:07;11.27;;;4.10;;
69161;SDS011;56269;51.738;21.652;2023-05-08T03:20:37;10.80;;;4.35;;
69161;SDS011;56269;51.738;21.652;2023-05-08T03:23:05;12.03;;;5.10;;
69161;SDS011;56269;51.738;21.652;2023-05-08T03:25:35;12.00;;;4.03;;
69161;SDS011;56269;51.738;21.652;2023-05-08T03:28:03;9.40;;;4.03;;
69161;SDS011;56269;51.738;21.652;2023-05-08T03:30:31;11.15;;;4.53;;
69161;SDS011;56269;51.738;21.652;2023-05-08T03:33:01;12.73;;;4.80;;
69161;SDS011;56269;51.738;21.652;2023-05-08T03:35:29;12.77;;;4.30;;
69161;SDS011;56269;51.738;21.652;2023-05-08T03:37:57;11.45;;;4.30;;
69161;SDS011;56269;51.738;21.652;2023-05-08T03:40:23;13.63;;;4.53;;
69161;SDS011;56269;51.738;21.652;2023-05-08T03:42:50;11.68;;;4.38;;
69161;SDS011;56269;51.738;21.652;2023-05-08T03:45:17;11.25;;;4.82;;
69161;SDS011;56269;51.738;21.652;2023-05-08T03:47:44;10.93;;;4.53;;
69161;SDS011;56269;51.738;21.652;2023-05-08T03:50:11;12.60;;;4.68;;
69161;SDS011;56269;51.738;21.652;2023-05-08T03:52:38;12.50;;;4.57;;
69161;SDS011;56269;51.738;21.652;2023-05-08T03:55:04;13.60;;;5.55;;
69161;SDS011;56269;51.738;21.652;2023-05-08T03:57:33;12.38;;;4.72;;
69161;SDS011;56269;51.738;21.652;2023-05-08T04:03:12;11.82;;;4.97;;
69161;SDS011;56269;51.738;21.652;2023-05-08T04:08:47;10.82;;;4.30;;
69161;SDS011;56269;51.738;21.652;2023-05-08T04:11:29;14.85;;;5.40;;
69161;SDS011;56269;51.738;21.652;2023-05-08T04:14:02;15.87;;;6.13;;
69161;SDS011;56269;51.738;21.652;2023-05-08T04:16:32;13.02;;;5.10;;
69161;SDS011;56269;51.738;21.652;2023-05-08T04:19:10;13.93;;;5.72;;
69161;SDS011;56269;51.738;21.652;2023-05-08T04:21:42;11.95;;;4.93;;
69161;SDS011;56269;51.738;21.652;2023-05-08T04:24:11;12.98;;;5.47;;
69161;SDS011;56269;51.738;21.652;2023-05-08T04:26:40;13.43;;;5.87;;
69161;SDS011;56269;51.738;21.652;2023-05-08T04:29:07;11.70;;;5.47;;
69161;SDS011;56269;51.738;21.652;2023-05-08T04:31:34;13.95;;;5.85;;
69161;SDS011;56269;51.738;21.652;2023-05-08T04:34:02;13.63;;;6.53;;
69161;SDS011;56269;51.738;21.652;2023-05-08T04:36:29;13.68;;;5.80;;
69161;SDS011;56269;51.738;21.652;2023-05-08T04:38:56;13.07;;;5.93;;
69161;SDS011;56269;51.738;21.652;2023-05-08T04:41:22;13.65;;;6.68;;
69161;SDS011;56269;51.738;21.652;2023-05-08T04:43:48;18.48;;;5.88;;
69161;SDS011;56269;51.738;21.652;2023-05-08T04:46:15;13.20;;;6.43;;
69161;SDS011;56269;51.738;21.652;2023-05-08T04:48:41;15.27;;;7.03;;
69161;SDS011;56269;51.738;21.652;2023-05-08T04:51:08;14.30;;;7.35;;
69161;SDS011;56269;51.738;21.652;2023-05-08T04:53:34;15.43;;;7.40;;
69161;SDS011;56269;51.738;21.652;2023-05-08T04:56:00;14.52;;;7.13;;
69161;SDS011;56269;51.738;21.652;2023-05-08T04:58:27;14.52;;;7.03;;
69161;SDS011;56269;51.738;21.652;2023-05-08T05:00:53;10.93;;;4.63;;
69161;SDS011;56269;51.738;21.652;2023-05-08T05:03:19;12.27;;;6.05;;
69161;SDS011;56269;51.738;21.652;2023-05-08T05:05:45;12.25;;;5.97;;
69161;SDS011;56269;51.738;21.652;2023-05-08T05:08:12;12.77;;;4.50;;
69161;SDS011;56269;51.738;21.652;2023-05-08T05:10:38;16.67;;;6.47;;
69161;SDS011;56269;51.738;21.652;2023-05-08T05:13:04;16.90;;;6.45;;
69161;SDS011;56269;51.738;21.652;2023-05-08T05:15:30;10.00;;;4.07;;
69161;SDS011;56269;51.738;21.652;2023-05-08T05:17:56;10.75;;;3.65;;
69161;SDS011;56269;51.738;21.652;2023-05-08T05:20:22;8.15;;;2.50;;
69161;SDS011;56269;51.738;21.652;2023-05-08T05:22:49;9.30;;;3.90;;
69161;SDS011;56269;51.738;21.652;2023-05-08T05:25:15;9.38;;;3.70;;
69161;SDS011;56269;51.738;21.652;2023-05-08T05:27:41;4.88;;;2.00;;
69161;SDS011;56269;51.738;21.652;2023-05-08T05:30:07;7.43;;;3.35;;
69161;SDS011;56269;51.738;21.652;2023-05-08T05:32:34;8.98;;;3.42;;
69161;SDS011;56269;51.738;21.652;2023-05-08T05:35:00;7.00;;;2.40;;
69161;SDS011;56269;51.738;21.652;2023-05-08T05:37:26;8.07;;;3.20;;
69161;SDS011;56269;51.738;21.652;2023-05-08T05:39:52;10.27;;;3.58;;
69161;SDS011;56269;51.738;21.652;2023-05-08T05:42:18;10.63;;;3.85;;
69161;SDS011;56269;51.738;21.652;2023-05-08T05:44:46;10.13;;;3.13;;
69161;SDS011;56269;51.738;21.652;2023-05-08T05:47:13;8.70;;;3.28;;
69161;SDS011;56269;51.738;21.652;2023-05-08T05:49:39;5.45;;;2.30;;
69161;SDS011;56269;51.738;21.652;2023-05-08T05:52:07;8.07;;;2.80;;
69161;SDS011;56269;51.738;21.652;2023-05-08T05:54:34;4.72;;;1.90;;
69161;SDS011;56269;51.738;21.652;2023-05-08T05:57:00;5.57;;;2.27;;
69161;SDS011;56269;51.738;21.652;2023-05-08T05:59:26;6.30;;;2.40;;
69161;SDS011;56269;51.738;21.652;2023-05-08T06:01:52;6.97;;;2.90;;
69161;SDS011;56269;51.738;21.652;2023-05-08T06:04:19;6.68;;;2.40;;
69161;SDS011;56269;51.738;21.652;2023-05-08T06:06:45;6.47;;;2.40;;
69161;SDS011;56269;51.738;21.652;2023-05-08T06:09:11;8.00;;;2.63;;
69161;SDS011;56269;51.738;21.652;2023-05-08T06:11:37;4.32;;;1.60;;
69161;SDS011;56269;51.738;21.652;2023-05-08T06:14:03;8.45;;;2.53;;
69161;SDS011;56269;51.738;21.652;2023-05-08T06:16:30;8.30;;;2.85;;
69161;SDS011;56269;51.738;21.652;2023-05-08T06:18:56;6.50;;;2.73;;
69161;SDS011;56269;51.738;21.652;2023-05-08T06:21:22;6.03;;;2.38;;
69161;SDS011;56269;51.738;21.652;2023-05-08T06:23:48;5.50;;;1.70;;
69161;SDS011;56269;51.738;21.652;2023-05-08T06:26:15;5.10;;;2.00;;
69161;SDS011;56269;51.738;21.652;2023-05-08T06:28:41;6.43;;;2.65;;
69161;SDS011;56269;51.738;21.652;2023-05-08T06:31:07;5.77;;;2.03;;
69161;SDS011;56269;51.738;21.652;2023-05-08T06:33:33;7.60;;;2.60;;
69161;SDS011;56269;51.738;21.652;2023-05-08T06:36:00;6.00;;;2.47;;
69161;SDS011;56269;51.738;21.652;2023-05-08T06:38:25;6.47;;;2.55;;
69161;SDS011;56269;51.738;21.652;2023-05-08T06:40:54;6.57;;;2.58;;
69161;SDS011;56269;51.738;21.652;2023-05-08T06:43:20;6.00;;;2.50;;
69161;SDS011;56269;51.738;21.652;2023-05-08T06:45:46;6.28;;;2.65;;
69161;SDS011;56269;51.738;21.652;2023-05-08T06:48:12;6.32;;;2.50;;
69161;SDS011;56269;51.738;21.652;2023-05-08T06:50:38;4.97;;;1.90;;
69161;SDS011;56269;51.738;21.652;2023-05-08T06:53:05;7.07;;;2.33;;
69161;SDS011;56269;51.738;21.652;2023-05-08T06:55:32;5.97;;;1.83;;
69161;SDS011;56269;51.738;21.652;2023-05-08T06:57:58;5.97;;;2.38;;
69161;SDS011;56269;51.738;21.652;2023-05-08T07:00:24;7.32;;;2.55;;
69161;SDS011;56269;51.738;21.652;2023-05-08T07:02:51;6.55;;;2.40;;
69161;SDS011;56269;51.738;21.652;2023-05-08T07:05:17;4.70;;;1.77;;
69161;SDS011;56269;51.738;21.652;2023-05-08T07:07:44;6.53;;;2.50;;
69161;SDS011;56269;51.738;21.652;2023-05-08T07:10:10;5.95;;;2.08;;
69161;SDS011;56269;51.738;21.652;2023-05-08T07:12:36;5.38;;;2.10;;
69161;SDS011;56269;51.738;21.652;2023-05-08T07:15:03;6.45;;;2.38;;
69161;SDS011;56269;51.738;21.652;2023-05-08T07:17:29;5.40;;;2.40;;
69161;SDS011;56269;51.738;21.652;2023-05-08T07:19:57;6.03;;;2.10;;
69161;SDS011;56269;51.738;21.652;2023-05-08T07:22:25;6.43;;;2.30;;
69161;SDS011;56269;51.738;21.652;2023-05-08T07:24:51;4.60;;;1.83;;
69161;SDS011;56269;51.738;21.652;2023-05-08T07:27:17;4.85;;;1.92;;
69161;SDS011;56269;51.738;21.652;2023-05-08T07:29:44;7.22;;;2.53;;
69161;SDS011;56269;51.738;21.652;2023-05-08T07:32:11;5.30;;;1.87;;
69161;SDS011;56269;51.738;21.652;2023-05-08T07:34:37;6.90;;;2.40;;
69161;SDS011;56269;51.738;21.652;2023-05-08T07:37:03;6.38;;;2.10;;
69161;SDS011;56269;51.738;21.652;2023-05-08T07:39:29;6.95;;;2.13;;
69161;SDS011;56269;51.738;21.652;2023-05-08T07:41:55;7.30;;;2.83;;
69161;SDS011;56269;51.738;21.652;2023-05-08T07:44:22;6.22;;;2.10;;
69161;SDS011;56269;51.738;21.652;2023-05-08T07:46:48;5.90;;;1.95;;
69161;SDS011;56269;51.738;21.652;2023-05-08T07:49:14;5.00;;;1.90;;
69161;SDS011;56269;51.738;21.652;2023-05-08T07:51:40;4.57;;;1.83;;
69161;SDS011;56269;51.738;21.652;2023-05-08T07:54:07;5.83;;;2.20;;
69161;SDS011;56269;51.738;21.652;2023-05-08T07:56:32;5.38;;;2.20;;
69161;SDS011;56269;51.738;21.652;2023-05-08T07:58:59;5.18;;;2.10;;
69161;SDS011;56269;51.738;21.652;2023-05-08T08:01:25;5.38;;;1.88;;
69161;SDS011;56269;51.738;21.652;2023-05-08T08:03:52;6.70;;;2.30;;
69161;SDS011;56269;51.738;21.652;2023-05-08T08:06:18;5.53;;;2.23;;
69161;SDS011;56269;51.738;21.652;2023-05-08T08:08:45;4.82;;;1.90;;
69161;SDS011;56269;51.738;21.652;2023-05-08T08:11:11;5.72;;;2.30;;
69161;SDS011;56269;51.738;21.652;2023-05-08T08:13:37;6.30;;;2.42;;
69161;SDS011;56269;51.738;21.652;2023-05-08T08:16:03;7.18;;;2.60;;
69161;SDS011;56269;51.738;21.652;2023-05-08T08:18:32;5.10;;;1.90;;
69161;SDS011;56269;51.738;21.652;2023-05-08T08:21:03;6.00;;;2.22;;
69161;SDS011;56269;51.738;21.652;2023-05-08T08:23:30;5.88;;;2.35;;
69161;SDS011;56269;51.738;21.652;2023-05-08T08:25:57;5.70;;;2.45;;
69161;SDS011;56269;51.738;21.652;2023-05-08T08:28:23;6.68;;;2.50;;
69161;SDS011;56269;51.738;21.652;2023-05-08T08:30:49;5.20;;;2.20;;
69161;SDS011;56269;51.738;21.652;2023-05-08T08:33:16;6.10;;;2.60;;
69161;SDS011;56269;51.738;21.652;2023-05-08T08:35:42;6.30;;;2.30;;
69161;SDS011;56269;51.738;21.652;2023-05-08T08:38:08;7.40;;;2.70;;
69161;SDS011;56269;51.738;21.652;2023-05-08T08:40:40;4.13;;;1.60;;
69161;SDS011;56269;51.738;21.652;2023-05-08T08:43:08;7.03;;;3.03;;
69161;SDS011;56269;51.738;21.652;2023-05-08T08:45:37;5.20;;;2.00;;
69161;SDS011;56269;51.738;21.652;2023-05-08T08:48:05;5.80;;;2.42;;
69161;SDS011;56269;51.738;21.652;2023-05-08T08:50:36;6.45;;;2.60;;
69161;SDS011;56269;51.738;21.652;2023-05-08T08:53:14;6.13;;;2.60;;
69161;SDS011;56269;51.738;21.652;2023-05-08T08:55:47;7.40;;;2.75;;
69161;SDS011;56269;51.738;21.652;2023-05-08T08:58:21;6.85;;;2.70;;
69161;SDS011;56269;51.738;21.652;2023-05-08T09:01:12;5.80;;;2.35;;
69161;SDS011;56269;51.738;21.652;2023-05-08T09:03:41;6.32;;;2.72;;
69161;SDS011;56269;51.738;21.652;2023-05-08T09:06:07;7.73;;;2.80;;
69161;SDS011;56269;51.738;21.652;2023-05-08T09:08:34;6.40;;;2.70;;
69161;SDS011;56269;51.738;21.652;2023-05-08T09:11:01;5.20;;;2.20;;
69161;SDS011;56269;51.738;21.652;2023-05-08T09:13:28;5.07;;;2.00;;
69161;SDS011;56269;51.738;21.652;2023-05-08T09:15:54;8.10;;;2.40;;
69161;SDS011;56269;51.738;21.652;2023-05-08T09:18:23;6.50;;;2.30;;
69161;SDS011;56269;51.738;21.652;2023-05-08T09:20:49;6.13;;;2.60;;
69161;SDS011;56269;51.738;21.652;2023-05-08T09:23:16;6.30;;;2.63;;
69161;SDS011;56269;51.738;21.652;2023-05-08T09:25:43;5.78;;;2.70;;
69161;SDS011;56269;51.738;21.652;2023-05-08T09:30:53;4.40;;;1.97;;
69161;SDS011;56269;51.738;21.652;2023-05-08T09:33:22;4.70;;;2.00;;
69161;SDS011;56269;51.738;21.652;2023-05-08T09:35:50;6.30;;;2.60;;
69161;SDS011;56269;51.738;21.652;2023-05-08T09:38:36;5.68;;;2.30;;
69161;SDS011;56269;51.738;21.652;2023-05-08T09:41:11;7.35;;;2.60;;
69161;SDS011;56269;51.738;21.652;2023-05-08T09:43:40;9.60;;;2.33;;
69161;SDS011;56269;51.738;21.652;2023-05-08T09:46:22;4.50;;;1.85;;
69161;SDS011;56269;51.738;21.652;2023-05-08T09:48:52;6.57;;;2.45;;
69161;SDS011;56269;51.738;21.652;2023-05-08T09:51:20;6.43;;;2.33;;
69161;SDS011;56269;51.738;21.652;2023-05-08T09:53:51;4.80;;;2.05;;
69161;SDS011;56269;51.738;21.652;2023-05-08T09:59:04;5.13;;;2.10;;
69161;SDS011;56269;51.738;21.652;2023-05-08T10:01:46;8.88;;;2.50;;
69161;SDS011;56269;51.738;21.652;2023-05-08T10:04:16;5.80;;;2.47;;
69161;SDS011;56269;51.738;21.652;2023-05-08T10:06:42;5.85;;;2.20;;
69161;SDS011;56269;51.738;21.652;2023-05-08T10:09:09;5.90;;;2.60;;
69161;SDS011;56269;51.738;21.652;2023-05-08T10:11:37;6.00;;;2.72;;
69161;SDS011;56269;51.738;21.652;2023-05-08T10:14:07;6.28;;;2.00;;
69161;SDS011;56269;51.738;21.652;2023-05-08T10:16:35;7.88;;;2.60;;
69161;SDS011;56269;51.738;21.652;2023-05-08T10:19:20;7.00;;;2.35;;
69161;SDS011;56269;51.738;21.652;2023-05-08T10:21:53;5.77;;;2.47;;
69161;SDS011;56269;51.738;21.652;2023-05-08T10:24:30;6.03;;;2.00;;
69161;SDS011;56269;51.738;21.652;2023-05-08T10:27:08;7.07;;;2.00;;
69161;SDS011;56269;51.738;21.652;2023-05-08T10:29:51;5.25;;;2.30;;
69161;SDS011;56269;51.738;21.652;2023-05-08T10:32:18;5.93;;;2.28;;
69161;SDS011;56269;51.738;21.652;2023-05-08T10:34:48;6.10;;;2.40;;
69161;SDS011;56269;51.738;21.652;2023-05-08T10:37:17;4.18;;;1.63;;
69161;SDS011;56269;51.738;21.652;2023-05-08T10:39:44;4.88;;;2.15;;
69161;SDS011;56269;51.738;21.652;2023-05-08T10:42:12;5.28;;;2.15;;
69161;SDS011;56269;51.738;21.652;2023-05-08T10:44:39;5.93;;;2.38;;
69161;SDS011;56269;51.738;21.652;2023-05-08T10:47:18;5.93;;;2.27;;
69161;SDS011;56269;51.738;21.652;2023-05-08T10:55:30;5.28;;;2.15;;
69161;SDS011;56269;51.738;21.652;2023-05-08T11:03:27;5.93;;;2.10;;
69161;SDS011;56269;51.738;21.652;2023-05-08T11:05:58;5.47;;;2.30;;
69161;SDS011;56269;51.738;21.652;2023-05-08T11:08:28;5.55;;;2.25;;
69161;SDS011;56269;51.738;21.652;2023-05-08T11:16:00;4.45;;;1.73;;
69161;SDS011;56269;51.738;21.652;2023-05-08T11:18:28;4.88;;;1.90;;
69161;SDS011;56269;51.738;21.652;2023-05-08T11:21:04;5.30;;;2.28;;
69161;SDS011;56269;51.738;21.652;2023-05-08T11:23:39;5.93;;;2.25;;
69161;SDS011;56269;51.738;21.652;2023-05-08T11:26:12;5.97;;;2.10;;
69161;SDS011;56269;51.738;21.652;2023-05-08T11:28:59;4.30;;;1.55;;
69161;SDS011;56269;51.738;21.652;2023-05-08T11:31:47;5.68;;;2.28;;
69161;SDS011;56269;51.738;21.652;2023-05-08T11:37:16;5.65;;;1.95;;
69161;SDS011;56269;51.738;21.652;2023-05-08T11:39:46;4.87;;;1.87;;
69161;SDS011;56269;51.738;21.652;2023-05-08T11:45:07;5.47;;;2.10;;
69161;SDS011;56269;51.738;21.652;2023-05-08T11:47:36;6.82;;;2.17;;
69161;SDS011;56269;51.738;21.652;2023-05-08T11:50:04;5.05;;;2.08;;
69161;SDS011;56269;51.738;21.652;2023-05-08T11:52:32;5.83;;;2.40;;
69161;SDS011;56269;51.738;21.652;2023-05-08T11:55:04;5.63;;;2.33;;
69161;SDS011;56269;51.738;21.652;2023-05-08T11:57:31;6.47;;;2.10;;
69161;SDS011;56269;51.738;21.652;2023-05-08T12:00:09;5.28;;;1.85;;
69161;SDS011;56269;51.738;21.652;2023-05-08T12:02:37;5.63;;;2.22;;
69161;SDS011;56269;51.738;21.652;2023-05-08T12:05:05;4.97;;;2.10;;
69161;SDS011;56269;51.738;21.652;2023-05-08T12:07:32;6.97;;;2.20;;
69161;SDS011;56269;51.738;21.652;2023-05-08T12:10:01;4.80;;;1.90;;
69161;SDS011;56269;51.738;21.652;2023-05-08T12:12:37;5.95;;;2.10;;
69161;SDS011;56269;51.738;21.652;2023-05-08T12:15:11;6.18;;;2.38;;
69161;SDS011;56269;51.738;21.652;2023-05-08T12:17:39;6.17;;;2.20;;
69161;SDS011;56269;51.738;21.652;2023-05-08T12:20:10;5.95;;;2.20;;
69161;SDS011;56269;51.738;21.652;2023-05-08T12:22:50;4.78;;;2.00;;
69161;SDS011;56269;51.738;21.652;2023-05-08T12:25:17;7.05;;;2.47;;
69161;SDS011;56269;51.738;21.652;2023-05-08T12:27:44;5.82;;;2.50;;
69161;SDS011;56269;51.738;21.652;2023-05-08T12:30:11;4.50;;;1.80;;
69161;SDS011;56269;51.738;21.652;2023-05-08T12:32:39;4.88;;;1.88;;
69161;SDS011;56269;51.738;21.652;2023-05-08T12:35:07;6.00;;;2.42;;
69161;SDS011;56269;51.738;21.652;2023-05-08T12:37:34;7.35;;;2.33;;
69161;SDS011;56269;51.738;21.652;2023-05-08T12:40:01;5.25;;;2.40;;
69161;SDS011;56269;51.738;21.652;2023-05-08T12:42:45;5.63;;;2.30;;
69161;SDS011;56269;51.738;21.652;2023-05-08T12:47:46;9.13;;;2.38;;
69161;SDS011;56269;51.738;21.652;2023-05-08T12:50:17;6.70;;;2.17;;
69161;SDS011;56269;51.738;21.652;2023-05-08T12:52:47;6.65;;;2.42;;
69161;SDS011;56269;51.738;21.652;2023-05-08T13:00:43;7.25;;;2.47;;
69161;SDS011;56269;51.738;21.652;2023-05-08T13:03:11;5.70;;;2.30;;
69161;SDS011;56269;51.738;21.652;2023-05-08T13:05:42;6.15;;;2.42;;
69161;SDS011;56269;51.738;21.652;2023-05-08T13:08:10;5.10;;;2.20;;
69161;SDS011;56269;51.738;21.652;2023-05-08T13:10:46;5.10;;;2.03;;
69161;SDS011;56269;51.738;21.652;2023-05-08T13:13:22;4.80;;;2.10;;
69161;SDS011;56269;51.738;21.652;2023-05-08T13:15:50;5.80;;;2.25;;
69161;SDS011;56269;51.738;21.652;2023-05-08T13:18:18;5.40;;;2.20;;
69161;SDS011;56269;51.738;21.652;2023-05-08T13:20:45;6.87;;;2.37;;
69161;SDS011;56269;51.738;21.652;2023-05-08T13:23:12;5.55;;;2.38;;
69161;SDS011;56269;51.738;21.652;2023-05-08T13:25:38;5.82;;;2.30;;
69161;SDS011;56269;51.738;21.652;2023-05-08T13:28:06;6.93;;;2.47;;
69161;SDS011;56269;51.738;21.652;2023-05-08T13:30:34;5.95;;;2.35;;
69161;SDS011;56269;51.738;21.652;2023-05-08T13:33:02;5.30;;;2.10;;
69161;SDS011;56269;51.738;21.652;2023-05-08T13:35:28;5.53;;;2.40;;
69161;SDS011;56269;51.738;21.652;2023-05-08T13:37:57;6.93;;;2.47;;
69161;SDS011;56269;51.738;21.652;2023-05-08T13:40:24;7.72;;;2.65;;
69161;SDS011;56269;51.738;21.652;2023-05-08T13:42:53;6.22;;;2.50;;
69161;SDS011;56269;51.738;21.652;2023-05-08T13:45:19;5.57;;;2.30;;
69161;SDS011;56269;51.738;21.652;2023-05-08T13:47:47;4.70;;;1.45;;
69161;SDS011;56269;51.738;21.652;2023-05-08T13:50:15;5.60;;;2.03;;
69161;SDS011;56269;51.738;21.652;2023-05-08T13:52:44;5.28;;;2.08;;
69161;SDS011;56269;51.738;21.652;2023-05-08T13:55:10;5.97;;;2.40;;
69161;SDS011;56269;51.738;21.652;2023-05-08T13:57:38;6.40;;;2.60;;
69161;SDS011;56269;51.738;21.652;2023-05-08T14:00:05;6.22;;;2.33;;
69161;SDS011;56269;51.738;21.652;2023-05-08T14:02:33;5.03;;;1.70;;
69161;SDS011;56269;51.738;21.652;2023-05-08T14:05:00;6.10;;;2.45;;
69161;SDS011;56269;51.738;21.652;2023-05-08T14:07:26;6.53;;;2.20;;
69161;SDS011;56269;51.738;21.652;2023-05-08T14:09:54;8.23;;;2.50;;
69161;SDS011;56269;51.738;21.652;2023-05-08T14:12:20;5.85;;;2.20;;
69161;SDS011;56269;51.738;21.652;2023-05-08T14:14:46;6.05;;;2.42;;
69161;SDS011;56269;51.738;21.652;2023-05-08T14:17:13;6.03;;;2.50;;
69161;SDS011;56269;51.738;21.652;2023-05-08T14:19:39;5.90;;;2.47;;
69161;SDS011;56269;51.738;21.652;2023-05-08T14:22:05;6.33;;;2.50;;
69161;SDS011;56269;51.738;21.652;2023-05-08T14:24:31;5.13;;;2.20;;
69161;SDS011;56269;51.738;21.652;2023-05-08T14:26:58;5.40;;;2.42;;
69161;SDS011;56269;51.738;21.652;2023-05-08T14:29:24;6.85;;;2.50;;
69161;SDS011;56269;51.738;21.652;2023-05-08T14:31:50;7.63;;;2.55;;
69161;SDS011;56269;51.738;21.652;2023-05-08T14:34:16;6.40;;;2.50;;
69161;SDS011;56269;51.738;21.652;2023-05-08T14:36:43;6.10;;;2.45;;
69161;SDS011;56269;51.738;21.652;2023-05-08T14:39:09;7.68;;;2.53;;
69161;SDS011;56269;51.738;21.652;2023-05-08T14:41:35;6.72;;;2.33;;
69161;SDS011;56269;51.738;21.652;2023-05-08T14:44:02;6.93;;;2.78;;
69161;SDS011;56269;51.738;21.652;2023-05-08T14:46:29;6.17;;;2.63;;
69161;SDS011;56269;51.738;21.652;2023-05-08T14:48:55;5.88;;;2.63;;
69161;SDS011;56269;51.738;21.652;2023-05-08T14:51:21;6.63;;;2.80;;
69161;SDS011;56269;51.738;21.652;2023-05-08T14:53:47;5.55;;;2.05;;
69161;SDS011;56269;51.738;21.652;2023-05-08T14:56:14;7.07;;;2.40;;
69161;SDS011;56269;51.738;21.652;2023-05-08T14:58:40;5.70;;;2.47;;
69161;SDS011;56269;51.738;21.652;2023-05-08T15:01:07;5.00;;;2.20;;
69161;SDS011;56269;51.738;21.652;2023-05-08T15:03:33;6.78;;;2.65;;
69161;SDS011;56269;51.738;21.652;2023-05-08T15:05:59;5.63;;;2.30;;
69161;SDS011;56269;51.738;21.652;2023-05-08T15:08:25;6.10;;;2.72;;
69161;SDS011;56269;51.738;21.652;2023-05-08T15:10:52;4.70;;;2.00;;
69161;SDS011;56269;51.738;21.652;2023-05-08T15:13:18;5.68;;;2.45;;
69161;SDS011;56269;51.738;21.652;2023-05-08T15:15:45;6.10;;;2.75;;
69161;SDS011;56269;51.738;21.652;2023-05-08T15:18:11;7.18;;;2.72;;
69161;SDS011;56269;51.738;21.652;2023-05-08T15:20:37;6.93;;;2.65;;
69161;SDS011;56269;51.738;21.652;2023-05-08T15:23:03;6.33;;;2.43;;
69161;SDS011;56269;51.738;21.652;2023-05-08T15:25:30;7.18;;;2.33;;
69161;SDS011;56269;51.738;21.652;2023-05-08T15:27:56;7.25;;;2.70;;
69161;SDS011;56269;51.738;21.652;2023-05-08T15:30:24;7.32;;;2.55;;
69161;SDS011;56269;51.738;21.652;2023-05-08T15:32:50;5.78;;;2.70;;
69161;SDS011;56269;51.738;21.652;2023-05-08T15:35:17;7.37;;;2.97;;
69161;SDS011;56269;51.738;21.652;2023-05-08T15:37:43;6.38;;;2.80;;
69161;SDS011;56269;51.738;21.652;2023-05-08T15:40:10;6.90;;;2.70;;
69161;SDS011;56269;51.738;21.652;2023-05-08T15:42:36;5.65;;;2.30;;
69161;SDS011;56269;51.738;21.652;2023-05-08T15:45:03;6.60;;;2.80;;
69161;SDS011;56269;51.738;21.652;2023-05-08T15:47:29;7.37;;;2.70;;